createdAt,value
2018-04-17T00:01:30.778Z,99.90
2018-04-17T00:03:56.927Z,99.90
2018-04-17T00:06:23.174Z,99.90
2018-04-17T00:08:49.447Z,99.90
2018-04-17T00:11:15.479Z,99.90
2018-04-17T00:13:41.603Z,99.90
2018-04-17T00:16:07.655Z,99.90
2018-04-17T00:18:33.750Z,99.90
2018-04-17T00:20:59.808Z,99.90
2018-04-17T00:23:25.904Z,99.90
2018-04-17T00:25:52.737Z,99.90
2018-04-17T00:28:18.868Z,99.90
2018-04-17T00:30:44.968Z,99.90
2018-04-17T00:33:10.985Z,99.90
2018-04-17T00:35:37.052Z,99.90
2018-04-17T00:38:04.293Z,99.90
2018-04-17T00:40:30.346Z,99.90
2018-04-17T00:42:56.445Z,99.90
2018-04-17T00:45:22.476Z,99.90
2018-04-17T00:47:48.520Z,99.90
2018-04-17T00:50:14.619Z,99.90
2018-04-17T00:52:40.670Z,99.90
2018-04-17T00:55:13.730Z,99.90
2018-04-17T00:57:39.784Z,99.90
2018-04-17T01:00:05.896Z,99.90
2018-04-17T01:02:31.990Z,99.90
2018-04-17T01:04:58.195Z,99.90
2018-04-17T01:07:24.271Z,99.90
2018-04-17T01:09:50.374Z,99.90
2018-04-17T01:12:16.428Z,99.90
2018-04-17T01:14:42.495Z,99.90
2018-04-17T01:17:08.579Z,99.90
2018-04-17T01:19:35.009Z,99.90
2018-04-17T01:22:01.138Z,99.90
2018-04-17T01:24:27.934Z,99.90
2018-04-17T01:26:53.986Z,99.90
2018-04-17T01:29:20.122Z,99.90
2018-04-17T01:31:46.559Z,99.90
2018-04-17T01:34:12.716Z,99.90
2018-04-17T01:36:39.521Z,99.90
2018-04-17T01:39:06.429Z,99.90
2018-04-17T01:41:32.542Z,99.90
2018-04-17T01:43:58.614Z,99.90
2018-04-17T01:46:25.437Z,99.90
2018-04-17T01:48:51.584Z,99.90
2018-04-17T01:51:17.663Z,99.90
2018-04-17T01:53:43.999Z,99.90
2018-04-17T01:56:10.100Z,99.90
2018-04-17T01:58:36.919Z,99.90
2018-04-17T02:01:03.875Z,99.90
2018-04-17T02:03:30.667Z,99.90
2018-04-17T02:05:56.732Z,99.90
2018-04-17T02:08:22.999Z,99.90
2018-04-17T02:10:49.064Z,99.90
2018-04-17T02:13:15.156Z,99.90
2018-04-17T02:15:41.257Z,99.90
2018-04-17T02:18:07.508Z,99.90
2018-04-17T02:20:33.637Z,99.90
2018-04-17T02:22:59.797Z,99.90
2018-04-17T02:25:25.881Z,99.90
2018-04-17T02:27:52.725Z,99.90
2018-04-17T02:30:19.134Z,99.90
2018-04-17T02:32:45.205Z,99.90
2018-04-17T02:35:11.306Z,99.90
2018-04-17T02:37:37.381Z,99.90
2018-04-17T02:40:03.468Z,99.90
2018-04-17T02:42:29.489Z,99.90
2018-04-17T02:44:55.564Z,99.90
2018-04-17T02:47:21.632Z,99.90
2018-04-17T02:49:48.445Z,99.90
2018-04-17T02:52:14.503Z,99.90
2018-04-17T02:54:40.567Z,99.90
2018-04-17T02:57:06.606Z,99.90
2018-04-17T02:59:33.441Z,99.90
2018-04-17T03:01:59.486Z,99.90
2018-04-17T03:04:25.583Z,99.90
2018-04-17T03:06:51.835Z,99.90
2018-04-17T03:09:17.910Z,99.90
2018-04-17T03:11:43.972Z,99.90
2018-04-17T03:14:10.764Z,99.90
2018-04-17T03:16:43.657Z,99.90
2018-04-17T03:19:09.786Z,99.90
2018-04-17T03:21:35.914Z,99.90
2018-04-17T03:24:02.017Z,99.90
2018-04-17T03:26:28.156Z,99.90
2018-04-17T03:28:54.223Z,99.90
2018-04-17T03:31:20.292Z,99.90
2018-04-17T03:33:46.417Z,99.90
2018-04-17T03:36:12.500Z,99.90
2018-04-17T03:38:38.561Z,99.90
2018-04-17T03:41:04.744Z,99.90
2018-04-17T03:43:30.829Z,99.90
2018-04-17T03:45:57.917Z,99.90
2018-04-17T03:48:23.975Z,99.90
2018-04-17T03:50:50.057Z,99.90
2018-04-17T03:53:16.252Z,99.90
2018-04-17T03:55:42.353Z,99.90
2018-04-17T03:58:09.168Z,99.90
2018-04-17T04:00:35.286Z,99.90
2018-04-17T04:03:01.465Z,99.90
2018-04-17T04:05:27.733Z,99.90
2018-04-17T04:07:54.575Z,99.90
2018-04-17T04:10:21.381Z,99.90
2018-04-17T04:12:47.466Z,99.90
2018-04-17T04:15:14.286Z,99.90
2018-04-17T04:17:52.716Z,99.90
2018-04-17T04:20:31.229Z,99.90
2018-04-17T04:23:09.566Z,99.90
2018-04-17T04:28:39.014Z,99.90
2018-04-17T04:31:05.182Z,99.90
2018-04-17T04:33:31.354Z,99.90
2018-04-17T04:35:58.149Z,99.90
2018-04-17T04:38:24.197Z,99.90
2018-04-17T04:40:50.321Z,99.90
2018-04-17T04:43:16.427Z,99.90
2018-04-17T04:45:42.549Z,99.90
2018-04-17T04:48:08.614Z,99.90
2018-04-17T04:50:34.705Z,99.90
2018-04-17T04:53:00.765Z,99.90
2018-04-17T04:55:26.824Z,99.90
2018-04-17T04:57:52.896Z,99.90
2018-04-17T05:00:19.263Z,99.90
2018-04-17T05:02:46.185Z,99.90
2018-04-17T05:05:12.273Z,99.90
2018-04-17T05:07:38.325Z,99.90
2018-04-17T05:10:05.485Z,99.90
2018-04-17T05:12:31.685Z,99.90
2018-04-17T05:14:57.727Z,99.90
2018-04-17T05:17:23.795Z,99.90
2018-04-17T05:19:49.849Z,99.90
2018-04-17T05:22:16.004Z,99.90
2018-04-17T05:24:42.380Z,99.90
2018-04-17T05:27:08.439Z,99.90
2018-04-17T05:29:34.593Z,99.90
2018-04-17T05:32:01.417Z,99.90
2018-04-17T05:34:27.513Z,99.90
2018-04-17T05:36:53.604Z,99.90
2018-04-17T05:39:19.767Z,99.90
2018-04-17T05:41:46.050Z,99.90
2018-04-17T05:44:12.165Z,99.90
2018-04-17T05:46:38.990Z,99.90
2018-04-17T05:49:05.234Z,99.90
2018-04-17T05:51:31.360Z,99.90
2018-04-17T05:53:57.459Z,99.90
2018-04-17T05:56:23.589Z,99.90
2018-04-17T05:58:49.790Z,99.90
2018-04-17T06:01:15.895Z,99.90
2018-04-17T06:03:41.963Z,99.90
2018-04-17T06:06:08.017Z,99.90
2018-04-17T06:08:34.218Z,99.90
2018-04-17T06:11:00.444Z,99.90
2018-04-17T06:13:26.633Z,99.90
2018-04-17T06:15:52.758Z,99.90
2018-04-17T06:18:18.847Z,99.90
2018-04-17T06:20:46.072Z,99.90
2018-04-17T06:23:12.200Z,99.90
2018-04-17T06:25:38.321Z,99.90
2018-04-17T06:28:04.452Z,99.90
2018-04-17T06:30:30.499Z,99.90
2018-04-17T06:32:56.595Z,99.90
2018-04-17T06:35:22.929Z,99.90
2018-04-17T06:37:48.978Z,99.90
2018-04-17T06:40:15.019Z,99.90
2018-04-17T06:42:41.114Z,99.90
2018-04-17T06:45:07.183Z,99.90
2018-04-17T06:47:33.454Z,99.90
2018-04-17T06:49:59.481Z,99.90
2018-04-17T06:52:25.808Z,99.90
2018-04-17T06:54:52.041Z,99.90
2018-04-17T06:57:18.866Z,99.90
2018-04-17T06:59:44.918Z,99.90
2018-04-17T07:02:11.189Z,99.90
2018-04-17T07:04:37.311Z,99.90
2018-04-17T07:07:03.639Z,99.90
2018-04-17T07:09:29.816Z,99.90
2018-04-17T07:11:55.922Z,99.90
2018-04-17T07:14:22.068Z,99.90
2018-04-17T07:16:48.275Z,99.90
2018-04-17T07:19:14.384Z,99.90
2018-04-17T07:21:40.510Z,99.90
2018-04-17T07:24:06.679Z,99.90
2018-04-17T07:26:32.743Z,99.90
2018-04-17T07:28:58.805Z,99.90
2018-04-17T07:31:24.958Z,99.90
2018-04-17T07:33:51.154Z,99.90
2018-04-17T07:36:17.213Z,99.90
2018-04-17T07:38:43.327Z,99.90
2018-04-17T07:41:09.514Z,99.90
2018-04-17T07:43:36.333Z,99.90
2018-04-17T07:46:02.454Z,99.90
2018-04-17T07:48:40.651Z,99.90
2018-04-17T07:51:06.768Z,99.90
2018-04-17T07:53:32.889Z,99.90
2018-04-17T07:55:58.939Z,99.90
2018-04-17T07:58:25.751Z,99.90
2018-04-17T08:00:51.849Z,99.90
2018-04-17T08:03:17.919Z,99.90
2018-04-17T08:05:44.003Z,99.90
2018-04-17T08:08:10.074Z,99.90
2018-04-17T08:10:36.293Z,99.90
2018-04-17T08:13:02.421Z,99.90
2018-04-17T08:15:28.452Z,99.90
2018-04-17T08:17:54.595Z,99.90
2018-04-17T08:20:20.700Z,99.90
2018-04-17T08:22:46.775Z,99.90
2018-04-17T08:25:13.744Z,99.90
2018-04-17T08:27:40.554Z,99.90
2018-04-17T08:30:06.609Z,99.90
2018-04-17T08:32:32.695Z,99.90
2018-04-17T08:34:58.748Z,99.90
2018-04-17T08:37:24.843Z,99.90
2018-04-17T08:39:51.756Z,99.90
2018-04-17T08:42:17.809Z,99.90
2018-04-17T08:44:43.898Z,99.90
2018-04-17T08:47:09.981Z,99.90
2018-04-17T08:49:36.187Z,99.90
2018-04-17T08:52:02.258Z,99.90
2018-04-17T08:54:29.062Z,99.90
2018-04-17T08:56:56.001Z,99.90
2018-04-17T08:59:22.123Z,99.90
2018-04-17T09:01:48.189Z,99.90
2018-04-17T09:04:15.362Z,99.90
2018-04-17T09:06:41.446Z,99.90
2018-04-17T09:09:07.520Z,99.90
2018-04-17T09:11:33.609Z,99.90
2018-04-17T09:13:59.662Z,99.90
2018-04-17T09:16:25.741Z,99.90
2018-04-17T09:18:51.837Z,99.90
2018-04-17T09:21:17.864Z,99.90
2018-04-17T09:23:44.008Z,99.90
2018-04-17T09:26:10.083Z,99.90
2018-04-17T09:28:36.932Z,99.90
2018-04-17T09:31:03.178Z,99.90
2018-04-17T09:33:29.282Z,99.90
2018-04-17T09:35:55.419Z,99.90
2018-04-17T09:38:21.460Z,99.90
2018-04-17T09:40:47.558Z,99.90
2018-04-17T09:43:13.643Z,99.90
2018-04-17T09:45:39.919Z,99.90
2018-04-17T09:48:06.757Z,99.90
2018-04-17T09:50:32.882Z,99.90
2018-04-17T09:52:59.065Z,99.90
2018-04-17T09:55:25.139Z,99.90
2018-04-17T09:57:51.237Z,99.90
2018-04-17T10:00:18.952Z,99.90
2018-04-17T10:02:45.041Z,99.90
2018-04-17T10:05:11.118Z,99.90
2018-04-17T10:07:37.299Z,99.90
2018-04-17T10:10:03.444Z,99.90
2018-04-17T10:12:29.519Z,99.90
2018-04-17T10:14:57.641Z,99.90
2018-04-17T10:17:23.703Z,99.90
2018-04-17T10:19:49.753Z,99.90
2018-04-17T10:22:15.819Z,99.90
2018-04-17T10:24:41.917Z,99.90
2018-04-17T10:27:08.024Z,99.90
2018-04-17T10:29:34.290Z,99.90
2018-04-17T10:32:00.396Z,99.90
2018-04-17T10:34:26.442Z,99.90
2018-04-17T10:36:52.629Z,99.90
2018-04-17T10:39:19.463Z,99.90
2018-04-17T10:41:45.544Z,99.90
2018-04-17T10:44:12.379Z,99.90
2018-04-17T10:46:38.466Z,99.90
2018-04-17T10:49:04.692Z,99.90
2018-04-17T10:51:37.721Z,99.90
2018-04-17T10:54:04.529Z,99.90
2018-04-17T10:56:30.871Z,99.90
2018-04-17T10:58:57.789Z,99.90
2018-04-17T11:01:23.859Z,99.90
2018-04-17T11:03:50.714Z,99.90
2018-04-17T11:06:16.820Z,99.90
2018-04-17T11:08:43.695Z,99.90
2018-04-17T11:11:10.025Z,99.90
2018-04-17T11:13:36.452Z,99.90
2018-04-17T11:16:02.666Z,99.90
2018-04-17T11:18:28.745Z,99.90
2018-04-17T11:20:55.625Z,99.90
2018-04-17T11:23:21.820Z,99.90
2018-04-17T11:25:47.937Z,99.90
2018-04-17T11:28:14.088Z,99.90
2018-04-17T11:30:40.228Z,99.90
2018-04-17T11:33:06.426Z,99.90
2018-04-17T11:35:33.324Z,93.70
2018-04-17T11:37:59.418Z,93.80
2018-04-17T11:40:25.607Z,93.50
2018-04-17T11:42:51.751Z,94.50
2018-04-17T11:45:17.852Z,94.80
2018-04-17T11:47:43.937Z,94.10
2018-04-17T11:50:10.048Z,93.40
2018-04-17T11:52:36.202Z,90.00
2018-04-17T11:55:02.388Z,84.30
2018-04-17T11:57:28.497Z,79.40
2018-04-17T11:59:54.554Z,71.80
2018-04-17T12:02:22.159Z,71.80
2018-04-17T12:04:48.197Z,71.00
2018-04-17T12:07:14.982Z,70.60
2018-04-17T12:09:41.063Z,70.50
2018-04-17T12:12:07.186Z,73.80
2018-04-17T12:14:33.309Z,76.00
2018-04-17T12:16:59.373Z,78.90
2018-04-17T12:19:25.434Z,77.30
2018-04-17T12:21:52.253Z,70.90
2018-04-17T12:24:18.541Z,70.80
2018-04-17T12:26:45.380Z,64.20
2018-04-17T12:29:11.529Z,64.20
2018-04-17T12:31:37.673Z,61.40
2018-04-17T12:34:03.890Z,59.20
2018-04-17T12:36:29.941Z,59.30
2018-04-17T12:38:56.128Z,58.90
2018-04-17T12:41:22.216Z,58.40
2018-04-17T12:43:48.280Z,58.40
2018-04-17T12:46:15.460Z,55.80
2018-04-17T12:48:41.550Z,55.70
2018-04-17T12:51:07.632Z,55.40
2018-04-17T12:53:33.783Z,54.20
2018-04-17T12:55:59.834Z,53.80
2018-04-17T12:58:25.930Z,51.90
2018-04-17T13:00:52.282Z,52.30
2018-04-17T13:03:18.388Z,51.90
2018-04-17T13:05:45.201Z,46.20
2018-04-17T13:08:11.304Z,46.00
2018-04-17T13:10:38.142Z,42.00
2018-04-17T13:13:04.609Z,41.90
2018-04-17T13:15:30.677Z,43.90
2018-04-17T13:17:56.732Z,42.60
2018-04-17T13:20:22.887Z,40.00
2018-04-17T13:22:49.047Z,39.80
2018-04-17T13:25:15.178Z,38.80
2018-04-17T13:27:41.347Z,37.60
2018-04-17T13:30:07.468Z,40.20
2018-04-17T13:32:33.608Z,39.20
2018-04-17T13:34:59.785Z,40.00
2018-04-17T13:37:25.900Z,39.30
2018-04-17T13:39:52.707Z,37.40
2018-04-17T13:42:18.853Z,37.30
2018-04-17T13:44:44.964Z,38.10
2018-04-17T13:47:11.070Z,37.80
2018-04-17T13:49:37.206Z,37.10
2018-04-17T13:52:03.323Z,38.00
2018-04-17T13:54:30.184Z,38.00
2018-04-17T13:56:56.485Z,37.90
2018-04-17T13:59:22.645Z,37.20
2018-04-17T14:01:48.743Z,37.00
2018-04-17T14:04:14.842Z,36.80
2018-04-17T14:06:40.915Z,37.10
2018-04-17T14:09:07.171Z,36.00
2018-04-17T14:11:33.405Z,36.80
2018-04-17T14:13:59.466Z,35.00
2018-04-17T14:16:25.939Z,34.70
2018-04-17T14:18:52.118Z,33.80
2018-04-17T14:21:18.197Z,34.50
2018-04-17T14:23:44.253Z,33.30
2018-04-17T14:26:10.406Z,33.00
2018-04-17T14:28:36.801Z,34.20
2018-04-17T14:31:02.990Z,34.70
2018-04-17T14:33:29.104Z,32.50
2018-04-17T14:35:55.225Z,32.00
2018-04-17T14:38:21.372Z,31.30
2018-04-17T14:40:47.497Z,31.60
2018-04-17T14:43:13.804Z,31.10
2018-04-17T14:45:39.889Z,31.80
2018-04-17T14:48:06.060Z,32.70
2018-04-17T14:50:32.145Z,32.30
2018-04-17T14:52:58.239Z,31.70
2018-04-17T14:55:24.366Z,31.80
2018-04-17T14:57:50.496Z,31.70
2018-04-17T15:00:16.637Z,33.70
2018-04-17T15:02:42.785Z,34.50
2018-04-17T15:05:09.075Z,32.70
2018-04-17T15:07:36.011Z,32.30
2018-04-17T15:10:03.061Z,33.50
2018-04-17T15:12:29.210Z,33.50
2018-04-17T15:14:55.267Z,33.30
2018-04-17T15:17:22.092Z,31.40
2018-04-17T15:19:48.200Z,31.50
2018-04-17T15:22:14.273Z,33.30
2018-04-17T15:24:40.324Z,32.30
2018-04-17T15:27:06.509Z,32.70
2018-04-17T15:29:33.071Z,31.90
2018-04-17T15:32:00.923Z,32.50
2018-04-17T15:34:27.206Z,35.40
2018-04-17T15:36:54.290Z,36.40
2018-04-17T15:39:20.373Z,36.40
2018-04-17T15:41:46.495Z,35.40
2018-04-17T15:44:12.693Z,35.70
2018-04-17T15:46:38.921Z,36.30
2018-04-17T15:49:05.814Z,36.30
2018-04-17T15:51:31.942Z,36.50
2018-04-17T15:53:58.233Z,37.40
2018-04-17T15:56:24.370Z,37.00
2018-04-17T15:58:50.425Z,38.50
2018-04-17T16:01:16.515Z,39.60
2018-04-17T16:03:43.342Z,41.40
2018-04-17T16:06:09.379Z,41.10
2018-04-17T16:08:35.601Z,41.50
2018-04-17T16:11:02.017Z,42.50
2018-04-17T16:13:28.118Z,43.30
2018-04-17T16:15:54.242Z,44.50
2018-04-17T16:18:20.336Z,45.40
2018-04-17T16:20:46.478Z,46.50
2018-04-17T16:23:13.471Z,47.60
2018-04-17T16:25:39.535Z,47.50
2018-04-17T16:28:05.875Z,48.80
2018-04-17T16:30:31.974Z,50.00
2018-04-17T16:32:58.076Z,50.50
2018-04-17T16:35:25.775Z,52.40
2018-04-17T16:37:51.930Z,51.80
2018-04-17T16:40:18.062Z,52.50
2018-04-17T16:42:44.144Z,52.90
2018-04-17T16:45:10.346Z,52.80
2018-04-17T16:47:36.522Z,52.70
2018-04-17T16:50:02.865Z,51.30
2018-04-17T16:52:29.061Z,50.40
2018-04-17T16:54:55.129Z,50.00
2018-04-17T16:57:21.555Z,50.00
2018-04-17T16:59:47.613Z,49.60
2018-04-17T17:02:13.707Z,49.30
2018-04-17T17:04:40.577Z,50.70
2018-04-17T17:07:07.689Z,51.20
2018-04-17T17:09:33.830Z,51.20
2018-04-17T17:11:59.913Z,51.50
2018-04-17T17:14:25.977Z,52.20
2018-04-17T17:16:52.088Z,53.50
2018-04-17T17:19:18.159Z,53.20
2018-04-17T17:21:44.232Z,53.70
2018-04-17T17:24:10.302Z,54.00
2018-04-17T17:26:37.147Z,55.30
2018-04-17T17:29:04.083Z,56.50
2018-04-17T17:31:30.228Z,56.50
2018-04-17T17:34:03.432Z,59.10
2018-04-17T17:36:29.723Z,61.80
2018-04-17T17:38:55.810Z,66.80
2018-04-17T17:41:22.063Z,74.30
2018-04-17T17:43:48.193Z,80.10
2018-04-17T17:46:14.329Z,88.30
2018-04-17T17:48:40.377Z,92.50
2018-04-17T17:51:06.535Z,98.70
2018-04-17T17:53:32.583Z,99.90
2018-04-17T17:55:58.652Z,99.90
2018-04-17T17:58:24.725Z,99.90
2018-04-17T18:00:51.073Z,99.90
2018-04-17T18:03:17.130Z,99.90
2018-04-17T18:05:43.968Z,99.90
2018-04-17T18:08:09.997Z,99.90
2018-04-17T18:10:36.359Z,99.90
2018-04-17T18:13:02.590Z,99.90
2018-04-17T18:15:28.690Z,99.90
2018-04-17T18:17:54.761Z,99.90
2018-04-17T18:20:20.913Z,99.90
2018-04-17T18:22:46.958Z,99.90
2018-04-17T18:25:13.084Z,99.90
2018-04-17T18:27:39.162Z,99.90
2018-04-17T18:30:05.313Z,99.90
2018-04-17T18:32:31.404Z,99.90
2018-04-17T18:34:57.588Z,99.90
2018-04-17T18:37:23.916Z,99.90
2018-04-17T18:39:50.000Z,99.90
2018-04-17T18:42:16.084Z,99.90
2018-04-17T18:44:42.931Z,99.90
2018-04-17T18:47:09.147Z,99.90
2018-04-17T18:49:35.240Z,99.90
2018-04-17T18:52:01.662Z,99.90
2018-04-17T18:54:27.709Z,99.90
2018-04-17T18:56:54.540Z,99.90
2018-04-17T18:59:20.705Z,99.90
2018-04-17T19:01:47.548Z,99.90
2018-04-17T19:04:14.381Z,99.90
2018-04-17T19:06:40.759Z,99.90
2018-04-17T19:09:06.873Z,99.90
2018-04-17T19:11:33.877Z,99.90
2018-04-17T19:14:00.066Z,99.90
2018-04-17T19:16:26.153Z,99.90
2018-04-17T19:18:52.257Z,99.90
2018-04-17T19:21:19.121Z,99.90
2018-04-17T19:23:46.005Z,99.90
2018-04-17T19:26:12.077Z,99.90
2018-04-17T19:28:39.781Z,99.90
2018-04-17T19:31:05.970Z,99.90
2018-04-17T19:33:32.963Z,99.90
2018-04-17T19:35:59.821Z,99.90
2018-04-17T19:38:25.927Z,99.90
2018-04-17T19:40:52.151Z,99.90
2018-04-17T19:43:18.326Z,99.90
2018-04-17T19:45:44.528Z,99.90
2018-04-17T19:48:11.804Z,99.90
2018-04-17T19:50:38.247Z,99.90
2018-04-17T19:53:10.229Z,99.90
2018-04-17T19:55:36.712Z,99.90
2018-04-17T19:58:02.990Z,99.90
2018-04-17T20:00:29.870Z,99.90
2018-04-17T20:02:55.981Z,99.90
2018-04-17T20:05:22.791Z,99.90
2018-04-17T20:07:48.876Z,99.90
2018-04-17T20:10:15.233Z,99.90
2018-04-17T20:12:41.468Z,99.90
2018-04-17T20:15:07.813Z,99.90
2018-04-17T20:17:34.170Z,99.90
2018-04-17T20:20:00.297Z,99.90
2018-04-17T20:22:27.602Z,99.90
2018-04-17T20:24:53.747Z,99.90
2018-04-17T20:27:19.905Z,99.90
2018-04-17T20:29:45.992Z,99.90
2018-04-17T20:32:12.252Z,99.90
2018-04-17T20:34:39.192Z,99.90
2018-04-17T20:37:05.372Z,99.90
2018-04-17T20:39:31.531Z,99.90
2018-04-17T20:41:57.652Z,99.90
2018-04-17T20:44:23.774Z,99.90
2018-04-17T20:46:49.904Z,99.90
2018-04-17T20:49:15.992Z,99.90
2018-04-17T20:51:47.279Z,99.90
2018-04-17T20:54:13.732Z,99.90
2018-04-17T20:56:39.802Z,99.90
2018-04-17T20:59:07.179Z,99.90
2018-04-17T21:01:36.066Z,99.90
2018-04-17T21:04:02.143Z,99.90
2018-04-17T21:06:28.426Z,99.90
2018-04-17T21:08:54.855Z,99.90
2018-04-17T21:11:20.957Z,99.90
2018-04-17T21:13:47.073Z,99.90
2018-04-17T21:16:14.508Z,99.90
2018-04-17T21:18:41.338Z,99.90
2018-04-17T21:21:07.439Z,99.90
2018-04-17T21:23:33.605Z,99.90
2018-04-17T21:25:59.701Z,99.90
2018-04-17T21:28:25.766Z,99.90
2018-04-17T21:30:51.862Z,99.90
2018-04-17T21:33:17.969Z,99.90
2018-04-17T21:35:44.016Z,99.90
2018-04-17T21:38:10.901Z,99.90
2018-04-17T21:40:37.049Z,99.90
2018-04-17T21:43:03.366Z,99.90
2018-04-17T21:45:29.522Z,99.90
2018-04-17T21:47:55.586Z,99.90
2018-04-17T21:50:21.689Z,99.90
2018-04-17T21:52:47.756Z,99.90
2018-04-17T21:55:13.822Z,99.90
2018-04-17T21:57:39.861Z,99.90
2018-04-17T22:00:06.030Z,99.90
2018-04-17T22:02:33.034Z,99.90
2018-04-17T22:04:59.159Z,99.90
2018-04-17T22:07:25.226Z,99.90
2018-04-17T22:09:51.409Z,99.90
2018-04-17T22:12:17.473Z,99.90
2018-04-17T22:14:43.549Z,99.90
2018-04-17T22:17:09.667Z,99.90
2018-04-17T22:19:35.905Z,99.90
2018-04-17T22:22:02.015Z,99.90
2018-04-17T22:24:28.121Z,99.90
2018-04-17T22:26:54.182Z,99.90
2018-04-17T22:29:21.025Z,99.90
2018-04-17T22:31:47.193Z,99.90
2018-04-17T22:34:13.276Z,99.90
2018-04-17T22:36:39.372Z,99.90
2018-04-17T22:39:05.676Z,99.90
2018-04-17T22:41:31.840Z,99.90
2018-04-17T22:43:58.679Z,99.90
2018-04-17T22:46:24.777Z,99.90
2018-04-17T22:48:50.953Z,99.90
2018-04-17T22:51:17.060Z,99.90
2018-04-17T22:53:43.116Z,99.90
2018-04-17T22:56:09.517Z,99.90
2018-04-17T22:58:35.685Z,99.90
2018-04-17T23:01:01.773Z,99.90
2018-04-17T23:03:28.613Z,99.90
2018-04-17T23:05:55.583Z,99.90
2018-04-17T23:08:22.405Z,99.90
2018-04-17T23:10:48.551Z,99.90
2018-04-17T23:13:14.649Z,99.90
2018-04-17T23:15:40.747Z,99.90
2018-04-17T23:18:06.902Z,99.90
2018-04-17T23:20:33.907Z,99.90
2018-04-17T23:22:59.997Z,99.90
2018-04-17T23:25:26.875Z,99.90
2018-04-17T23:27:52.941Z,99.90
2018-04-17T23:30:19.066Z,99.90
2018-04-17T23:32:45.242Z,99.90
2018-04-17T23:35:11.377Z,99.90
2018-04-17T23:37:37.509Z,99.90
2018-04-17T23:40:03.759Z,99.90
2018-04-17T23:42:29.888Z,99.90
2018-04-17T23:44:56.034Z,99.90
2018-04-17T23:47:22.277Z,99.90
2018-04-17T23:49:48.363Z,99.90
2018-04-17T23:52:14.570Z,99.90
2018-04-17T23:54:41.052Z,99.90
2018-04-17T23:57:07.179Z,99.90
2018-04-17T23:59:33.508Z,99.90
